createdAt,value
2018-04-15T00:01:07.741Z,10.10
2018-04-15T00:03:36.967Z,8.47
2018-04-15T00:06:05.449Z,9.23
2018-04-15T00:08:33.914Z,9.10
2018-04-15T00:11:03.340Z,9.33
2018-04-15T00:13:31.948Z,8.50
2018-04-15T00:16:00.440Z,9.10
2018-04-15T00:18:28.917Z,8.93
2018-04-15T00:20:57.152Z,9.30
2018-04-15T00:23:26.448Z,8.97
2018-04-15T00:25:54.916Z,9.30
2018-04-15T00:28:24.187Z,10.50
2018-04-15T00:30:52.681Z,9.20
2018-04-15T00:33:21.205Z,12.20
2018-04-15T00:35:49.702Z,8.30
2018-04-15T00:38:18.329Z,9.03
2018-04-15T00:40:46.805Z,9.77
2018-04-15T00:43:15.297Z,8.40
2018-04-15T00:45:43.939Z,8.90
2018-04-15T00:48:12.580Z,9.50
2018-04-15T00:50:42.085Z,9.37
2018-04-15T00:53:10.722Z,10.40
2018-04-15T00:55:39.272Z,9.47
2018-04-15T00:58:08.499Z,9.53
2018-04-15T01:00:37.036Z,9.67
2018-04-15T01:03:06.269Z,8.57
2018-04-15T01:05:34.872Z,8.37
2018-04-15T01:08:03.342Z,8.53
2018-04-15T01:10:31.992Z,8.27
2018-04-15T01:13:00.538Z,7.03
2018-04-15T01:15:29.016Z,7.43
2018-04-15T01:17:57.596Z,17.43
2018-04-15T01:20:26.284Z,7.87
2018-04-15T01:22:54.852Z,7.90
2018-04-15T01:25:23.333Z,7.43
2018-04-15T01:27:51.823Z,6.77
2018-04-15T01:30:20.317Z,7.70
2018-04-15T01:32:48.799Z,7.60
2018-04-15T01:35:17.272Z,9.20
2018-04-15T01:37:45.767Z,8.43
2018-04-15T01:40:14.353Z,9.57
2018-04-15T01:42:42.832Z,9.00
2018-04-15T01:45:11.312Z,7.90
2018-04-15T01:47:39.906Z,7.63
2018-04-15T01:50:08.584Z,7.20
2018-04-15T01:52:37.077Z,9.73
2018-04-15T01:55:05.209Z,7.63
2018-04-15T01:57:34.450Z,8.10
2018-04-15T02:00:02.933Z,6.50
2018-04-15T02:02:31.424Z,7.00
2018-04-15T02:04:59.892Z,8.13
2018-04-15T02:07:28.373Z,9.87
2018-04-15T02:09:57.055Z,7.60
2018-04-15T02:12:25.614Z,7.40
2018-04-15T02:14:54.853Z,6.80
2018-04-15T02:17:23.361Z,7.20
2018-04-15T02:19:51.922Z,8.20
2018-04-15T02:22:20.485Z,6.27
2018-04-15T02:24:49.153Z,6.47
2018-04-15T02:27:18.398Z,6.50
2018-04-15T02:29:47.039Z,6.33
2018-04-15T02:32:15.753Z,7.50
2018-04-15T02:34:44.341Z,6.30
2018-04-15T02:37:12.825Z,6.40
2018-04-15T02:39:41.417Z,5.90
2018-04-15T02:42:09.679Z,6.53
2018-04-15T02:44:38.205Z,6.37
2018-04-15T02:47:06.705Z,9.13
2018-04-15T02:49:35.237Z,7.10
2018-04-15T02:52:03.704Z,6.67
2018-04-15T02:54:32.191Z,7.93
2018-04-15T02:57:00.673Z,8.23
2018-04-15T02:59:29.137Z,6.93
2018-04-15T03:01:57.625Z,7.27
2018-04-15T03:04:26.116Z,6.20
2018-04-15T03:06:54.582Z,6.47
2018-04-15T03:09:23.094Z,9.10
2018-04-15T03:11:51.583Z,6.30
2018-04-15T03:14:20.077Z,6.20
2018-04-15T03:16:48.544Z,6.70
2018-04-15T03:19:17.013Z,6.93
2018-04-15T03:21:45.503Z,6.00
2018-04-15T03:24:13.977Z,6.57
2018-04-15T03:26:42.453Z,6.43
2018-04-15T03:29:10.931Z,7.60
2018-04-15T03:31:39.408Z,7.20
2018-04-15T03:34:08.654Z,6.63
2018-04-15T03:36:37.224Z,5.93
2018-04-15T03:39:05.881Z,6.57
2018-04-15T03:41:35.312Z,6.10
2018-04-15T03:44:03.804Z,5.70
2018-04-15T03:46:32.284Z,6.90
2018-04-15T03:49:00.841Z,6.57
2018-04-15T03:51:29.305Z,6.07
2018-04-15T03:53:58.570Z,6.10
2018-04-15T03:56:27.033Z,7.37
2018-04-15T03:58:55.618Z,5.37
2018-04-15T04:01:24.081Z,6.23
2018-04-15T04:03:52.677Z,7.03
2018-04-15T04:06:21.240Z,6.03
2018-04-15T04:08:50.492Z,5.20
2018-04-15T04:11:19.099Z,10.33
2018-04-15T04:13:47.350Z,5.70
2018-04-15T04:16:15.813Z,4.73
2018-04-15T04:18:55.660Z,7.57
2018-04-15T04:21:35.506Z,5.47
2018-04-15T04:24:15.352Z,5.50
2018-04-15T04:26:43.815Z,5.70
2018-04-15T04:29:13.076Z,7.53
2018-04-15T04:31:41.537Z,6.33
2018-04-15T04:34:10.055Z,5.53
2018-04-15T04:36:38.525Z,5.07
2018-04-15T04:39:06.653Z,5.00
2018-04-15T04:41:35.139Z,4.80
2018-04-15T04:44:03.727Z,5.53
2018-04-15T04:46:32.353Z,5.63
2018-04-15T04:49:00.837Z,5.83
2018-04-15T04:51:29.341Z,6.30
2018-04-15T04:53:58.577Z,5.80
2018-04-15T04:56:27.054Z,7.90
2018-04-15T04:58:55.532Z,6.53
2018-04-15T05:01:24.038Z,6.40
2018-04-15T05:03:52.280Z,5.90
2018-04-15T05:06:21.529Z,8.60
2018-04-15T05:08:50.148Z,5.63
2018-04-15T05:11:19.606Z,5.67
2018-04-15T05:13:48.076Z,5.40
2018-04-15T05:16:16.565Z,5.33
2018-04-15T05:18:45.077Z,5.43
2018-04-15T05:21:13.574Z,5.07
2018-04-15T05:23:42.052Z,6.03
2018-04-15T05:26:10.512Z,5.47
2018-04-15T05:28:39.248Z,6.00
2018-04-15T05:31:08.703Z,7.73
2018-04-15T05:33:37.173Z,6.43
2018-04-15T05:36:05.669Z,5.93
2018-04-15T05:38:34.345Z,6.20
2018-04-15T05:41:02.856Z,9.53
2018-04-15T05:43:32.872Z,6.37
2018-04-15T05:46:01.333Z,6.67
2018-04-15T05:48:29.468Z,6.93
2018-04-15T05:50:58.861Z,5.90
2018-04-15T05:53:28.123Z,5.30
2018-04-15T05:55:56.593Z,6.43
2018-04-15T05:58:25.069Z,5.67
2018-04-15T06:00:53.546Z,10.57
2018-04-15T06:03:22.197Z,6.40
2018-04-15T06:05:51.448Z,7.60
2018-04-15T06:08:19.941Z,9.67
2018-04-15T06:10:48.443Z,10.43
2018-04-15T06:13:17.291Z,6.80
2018-04-15T06:15:45.781Z,6.70
2018-04-15T06:18:15.232Z,6.70
2018-04-15T06:20:45.213Z,7.50
2018-04-15T06:23:13.709Z,6.20
2018-04-15T06:25:42.334Z,7.60
2018-04-15T06:28:11.577Z,6.30
2018-04-15T06:30:40.042Z,7.63
2018-04-15T06:33:08.535Z,5.03
2018-04-15T06:35:37.026Z,6.57
2018-04-15T06:38:05.505Z,6.67
2018-04-15T06:40:33.974Z,5.40
2018-04-15T06:43:02.485Z,6.20
2018-04-15T06:45:30.972Z,5.03
2018-04-15T06:47:59.468Z,4.80
2018-04-15T06:50:27.942Z,5.27
2018-04-15T06:52:56.483Z,7.50
2018-04-15T06:55:24.996Z,4.73
2018-04-15T06:57:53.473Z,5.10
2018-04-15T07:00:21.977Z,7.77
2018-04-15T07:02:51.241Z,4.37
2018-04-15T07:05:19.893Z,5.17
2018-04-15T07:07:49.277Z,4.67
2018-04-15T07:10:19.264Z,5.07
2018-04-15T07:12:47.761Z,5.27
2018-04-15T07:15:16.231Z,5.07
2018-04-15T07:17:44.987Z,5.53
2018-04-15T07:20:13.595Z,5.63
2018-04-15T07:22:42.100Z,6.10
2018-04-15T07:25:11.526Z,5.97
2018-04-15T07:27:40.013Z,7.20
2018-04-15T07:30:08.490Z,6.10
2018-04-15T07:32:37.857Z,6.80
2018-04-15T07:35:06.327Z,6.93
2018-04-15T07:37:34.813Z,6.60
2018-04-15T07:40:03.045Z,8.60
2018-04-15T07:42:31.555Z,8.70
2018-04-15T07:45:00.109Z,9.30
2018-04-15T07:47:28.597Z,7.93
2018-04-15T07:49:57.092Z,9.17
2018-04-15T07:52:26.336Z,7.57
2018-04-15T07:54:54.836Z,6.93
2018-04-15T07:57:24.301Z,8.83
2018-04-15T07:59:53.792Z,9.10
2018-04-15T08:02:23.287Z,7.40
2018-04-15T08:04:52.976Z,8.37
2018-04-15T08:07:22.469Z,8.03
2018-04-15T08:09:51.958Z,9.00
2018-04-15T08:12:20.471Z,8.77
2018-04-15T08:14:50.055Z,8.23
2018-04-15T08:17:19.570Z,8.80
2018-04-15T08:19:49.189Z,10.20
2018-04-15T08:22:18.685Z,10.43
2018-04-15T08:24:48.206Z,8.90
2018-04-15T08:27:17.792Z,9.30
2018-04-15T08:29:47.301Z,8.23
2018-04-15T08:32:16.813Z,8.77
2018-04-15T08:34:46.322Z,8.97
2018-04-15T08:37:15.823Z,9.37
2018-04-15T08:39:45.474Z,8.20
2018-04-15T08:42:14.960Z,8.10
2018-04-15T08:44:44.485Z,7.93
2018-04-15T08:47:13.972Z,9.03
2018-04-15T08:49:43.601Z,9.10
2018-04-15T08:52:12.949Z,9.10
2018-04-15T08:54:41.533Z,9.10
2018-04-15T08:57:10.032Z,9.27
2018-04-15T08:59:38.613Z,8.37
2018-04-15T09:02:07.104Z,8.73
2018-04-15T09:04:35.585Z,9.60
2018-04-15T09:07:04.090Z,8.27
2018-04-15T09:09:32.592Z,9.17
2018-04-15T09:12:01.833Z,8.40
2018-04-15T09:14:30.332Z,8.60
2018-04-15T09:16:58.845Z,8.70
2018-04-15T09:19:27.439Z,10.10
2018-04-15T09:21:56.709Z,8.97
2018-04-15T09:24:25.302Z,9.20
2018-04-15T09:26:53.954Z,9.40
2018-04-15T09:29:22.264Z,9.20
2018-04-15T09:31:50.785Z,8.47
2018-04-15T09:34:20.172Z,9.10
2018-04-15T09:36:48.661Z,10.10
2018-04-15T09:39:17.903Z,9.33
2018-04-15T09:41:46.424Z,8.50
2018-04-15T09:44:14.677Z,9.40
2018-04-15T09:46:43.201Z,8.83
2018-04-15T09:49:12.493Z,7.83
2018-04-15T09:51:40.991Z,9.83
2018-04-15T09:54:10.288Z,9.10
2018-04-15T09:56:39.561Z,10.27
2018-04-15T09:59:08.143Z,10.43
2018-04-15T10:01:36.829Z,9.47
2018-04-15T10:04:05.351Z,10.30
2018-04-15T10:06:34.285Z,9.43
2018-04-15T10:09:02.932Z,9.07
2018-04-15T10:11:32.192Z,10.00
2018-04-15T10:14:00.708Z,9.43
2018-04-15T10:16:30.073Z,9.83
2018-04-15T10:18:58.792Z,10.00
2018-04-15T10:21:27.341Z,10.23
2018-04-15T10:23:55.823Z,9.80
2018-04-15T10:26:24.499Z,10.33
2018-04-15T10:28:53.181Z,11.07
2018-04-15T10:31:21.704Z,10.03
2018-04-15T10:33:50.193Z,10.57
2018-04-15T10:36:18.671Z,10.23
2018-04-15T10:38:47.246Z,10.10
2018-04-15T10:41:16.682Z,10.47
2018-04-15T10:43:45.949Z,10.07
2018-04-15T10:46:14.464Z,10.00
2018-04-15T10:48:43.744Z,10.13
2018-04-15T10:51:12.216Z,10.03
2018-04-15T10:53:40.771Z,9.57
2018-04-15T10:56:09.368Z,10.43
2018-04-15T10:58:37.845Z,9.60
2018-04-15T11:01:06.470Z,10.93
2018-04-15T11:03:34.985Z,11.00
2018-04-15T11:06:04.316Z,9.80
2018-04-15T11:08:32.841Z,9.60
2018-04-15T11:11:01.339Z,10.83
2018-04-15T11:13:30.634Z,10.97
2018-04-15T11:15:59.115Z,9.27
2018-04-15T11:18:27.641Z,9.67
2018-04-15T11:20:55.909Z,10.13
2018-04-15T11:23:24.640Z,10.00
2018-04-15T11:25:53.207Z,9.90
2018-04-15T11:28:21.829Z,10.23
2018-04-15T11:30:51.153Z,10.40
2018-04-15T11:33:20.407Z,9.57
2018-04-15T11:35:48.917Z,10.57
2018-04-15T11:38:17.390Z,11.30
2018-04-15T11:40:45.884Z,10.30
2018-04-15T11:43:14.381Z,10.20
2018-04-15T11:45:43.013Z,9.30
2018-04-15T11:48:11.497Z,10.17
2018-04-15T11:50:39.988Z,9.60
2018-04-15T11:53:08.483Z,12.00
2018-04-15T11:55:37.045Z,11.80
2018-04-15T11:58:05.546Z,10.47
2018-04-15T12:00:34.126Z,9.00
2018-04-15T12:03:02.777Z,9.40
2018-04-15T12:05:31.284Z,9.23
2018-04-15T12:07:59.773Z,9.30
2018-04-15T12:10:28.273Z,10.50
2018-04-15T12:12:56.794Z,9.70
2018-04-15T12:15:26.078Z,9.23
2018-04-15T12:17:55.315Z,9.00
2018-04-15T12:20:23.849Z,14.80
2018-04-15T12:22:52.336Z,10.17
2018-04-15T12:25:20.870Z,10.83
2018-04-15T12:27:49.394Z,10.60
2018-04-15T12:30:17.941Z,8.40
2018-04-15T12:32:46.470Z,9.67
2018-04-15T12:35:14.969Z,10.13
2018-04-15T12:37:44.485Z,9.33
2018-04-15T12:40:13.825Z,10.17
2018-04-15T12:42:42.404Z,10.77
2018-04-15T12:45:10.941Z,10.13
2018-04-15T12:47:40.437Z,10.67
2018-04-15T12:50:09.933Z,9.57
2018-04-15T12:52:39.426Z,9.47
2018-04-15T12:55:08.904Z,9.67
2018-04-15T12:57:38.406Z,9.87
2018-04-15T13:00:07.693Z,10.90
2018-04-15T13:02:37.392Z,10.60
2018-04-15T13:05:06.872Z,9.73
2018-04-15T13:07:36.378Z,9.60
2018-04-15T13:10:05.905Z,10.87
2018-04-15T13:12:35.384Z,9.47
2018-04-15T13:15:04.901Z,8.93
2018-04-15T13:17:34.401Z,8.37
2018-04-15T13:20:03.567Z,9.60
2018-04-15T13:22:32.085Z,9.70
2018-04-15T13:25:00.612Z,9.67
2018-04-15T13:27:29.097Z,12.77
2018-04-15T13:29:57.647Z,11.43
2018-04-15T13:32:26.127Z,9.53
2018-04-15T13:34:54.608Z,10.40
2018-04-15T13:37:23.122Z,11.90
2018-04-15T13:39:52.361Z,12.03
2018-04-15T13:42:20.859Z,11.90
2018-04-15T13:44:49.381Z,11.27
2018-04-15T13:47:18.654Z,11.47
2018-04-15T13:49:47.142Z,12.07
2018-04-15T13:52:15.638Z,11.90
2018-04-15T13:54:44.134Z,11.23
2018-04-15T13:57:13.664Z,10.93
2018-04-15T13:59:43.101Z,11.43
2018-04-15T14:02:11.789Z,11.00
2018-04-15T14:04:40.436Z,11.30
2018-04-15T14:07:09.030Z,11.03
2018-04-15T14:09:37.615Z,9.90
2018-04-15T14:12:06.120Z,10.73
2018-04-15T14:14:34.600Z,7.90
2018-04-15T14:17:03.294Z,10.90
2018-04-15T14:19:31.827Z,8.40
2018-04-15T14:22:00.877Z,11.63
2018-04-15T14:24:29.565Z,11.53
2018-04-15T14:26:58.203Z,11.20
2018-04-15T14:29:26.704Z,10.83
2018-04-15T14:31:55.206Z,12.30
2018-04-15T14:34:23.850Z,12.47
2018-04-15T14:36:53.112Z,11.70
2018-04-15T14:39:21.690Z,12.63
2018-04-15T14:41:51.805Z,11.23
2018-04-15T14:44:20.485Z,11.03
2018-04-15T14:46:49.018Z,10.57
2018-04-15T14:49:18.309Z,10.13
2018-04-15T14:51:47.560Z,10.77
2018-04-15T14:54:16.052Z,9.73
2018-04-15T14:56:44.826Z,9.67
2018-04-15T14:59:14.213Z,9.37
2018-04-15T15:01:42.742Z,10.27
2018-04-15T15:04:10.997Z,9.60
2018-04-15T15:06:39.506Z,10.60
2018-04-15T15:09:08.048Z,10.23
2018-04-15T15:11:36.716Z,8.37
2018-04-15T15:14:06.014Z,9.47
2018-04-15T15:16:35.276Z,8.97
2018-04-15T15:19:03.761Z,8.83
2018-04-15T15:21:32.234Z,8.87
2018-04-15T15:24:00.721Z,8.23
2018-04-15T15:26:29.190Z,9.30
2018-04-15T15:28:57.698Z,8.43
2018-04-15T15:31:26.981Z,8.97
2018-04-15T15:33:55.526Z,8.50
2018-04-15T15:36:24.023Z,8.13
2018-04-15T15:38:52.609Z,7.60
2018-04-15T15:41:21.160Z,9.23
2018-04-15T15:43:50.457Z,9.00
2018-04-15T15:46:18.957Z,9.13
2018-04-15T15:48:48.275Z,7.77
2018-04-15T15:51:16.965Z,8.90
2018-04-15T15:53:45.225Z,7.87
2018-04-15T15:56:14.492Z,7.70
2018-04-15T15:58:42.986Z,7.30
2018-04-15T16:01:11.494Z,8.57
2018-04-15T16:03:40.003Z,7.93
2018-04-15T16:06:08.546Z,7.90
2018-04-15T16:08:37.805Z,9.20
2018-04-15T16:11:06.300Z,8.77
2018-04-15T16:13:34.849Z,7.47
2018-04-15T16:16:03.349Z,7.80
2018-04-15T16:18:31.854Z,7.17
2018-04-15T16:21:00.356Z,8.10
2018-04-15T16:23:28.615Z,9.43
2018-04-15T16:25:57.158Z,7.50
2018-04-15T16:28:25.701Z,8.07
2018-04-15T16:30:54.183Z,9.43
2018-04-15T16:33:23.761Z,7.27
2018-04-15T16:35:52.242Z,6.70
2018-04-15T16:38:20.398Z,8.60
2018-04-15T16:40:48.921Z,7.03
2018-04-15T16:43:17.194Z,7.47
2018-04-15T16:45:45.757Z,8.23
2018-04-15T16:48:14.272Z,7.37
2018-04-15T16:50:42.866Z,8.90
2018-04-15T16:53:11.540Z,9.37
2018-04-15T16:55:40.026Z,10.03
2018-04-15T16:58:08.512Z,8.03
2018-04-15T17:00:36.959Z,7.77
2018-04-15T17:03:05.494Z,7.37
2018-04-15T17:05:34.737Z,7.27
2018-04-15T17:08:03.217Z,6.57
2018-04-15T17:10:31.721Z,6.27
2018-04-15T17:13:00.280Z,7.60
2018-04-15T17:15:28.798Z,7.00
2018-04-15T17:17:57.346Z,6.20
2018-04-15T17:20:25.847Z,9.40
2018-04-15T17:22:54.316Z,6.90
2018-04-15T17:25:22.813Z,7.70
2018-04-15T17:27:51.310Z,9.10
2018-04-15T17:30:20.972Z,6.80
2018-04-15T17:32:50.504Z,6.87
2018-04-15T17:35:20.014Z,6.03
2018-04-15T17:37:49.940Z,5.93
2018-04-15T17:40:19.472Z,6.10
2018-04-15T17:42:48.944Z,6.60
2018-04-15T17:45:18.492Z,5.80
2018-04-15T17:47:48.057Z,7.13
2018-04-15T17:50:17.541Z,6.90
2018-04-15T17:52:47.085Z,5.40
2018-04-15T17:55:16.780Z,5.87
2018-04-15T17:57:46.296Z,5.20
2018-04-15T18:00:15.852Z,5.40
2018-04-15T18:02:45.432Z,5.63
2018-04-15T18:05:14.997Z,5.80
2018-04-15T18:07:44.523Z,6.07
2018-04-15T18:10:14.218Z,5.50
2018-04-15T18:12:43.890Z,5.50
2018-04-15T18:15:13.505Z,5.30
2018-04-15T18:17:43.142Z,5.63
2018-04-15T18:20:12.752Z,5.67
2018-04-15T18:22:42.237Z,5.27
2018-04-15T18:25:11.761Z,6.37
2018-04-15T18:27:41.306Z,5.00
2018-04-15T18:30:10.817Z,6.63
2018-04-15T18:32:40.358Z,5.53
2018-04-15T18:35:09.753Z,5.90
2018-04-15T18:37:39.249Z,7.00
2018-04-15T18:40:08.834Z,5.77
2018-04-15T18:42:38.457Z,5.40
2018-04-15T18:45:07.960Z,5.87
2018-04-15T18:47:37.480Z,5.30
2018-04-15T18:50:06.786Z,5.10
2018-04-15T18:52:36.464Z,5.80
2018-04-15T18:55:05.965Z,5.80
2018-04-15T18:57:35.470Z,5.83
2018-04-15T19:00:04.966Z,5.60
2018-04-15T19:02:34.464Z,5.93
2018-04-15T19:05:03.644Z,6.60
2018-04-15T19:07:33.193Z,7.30
2018-04-15T19:10:02.913Z,7.10
2018-04-15T19:12:32.492Z,6.80
2018-04-15T19:15:02.021Z,6.47
2018-04-15T19:17:31.724Z,7.07
2018-04-15T19:20:01.233Z,6.10
2018-04-15T19:22:30.744Z,6.87
2018-04-15T19:25:00.371Z,6.27
2018-04-15T19:27:29.901Z,6.77
2018-04-15T19:29:59.478Z,7.30
2018-04-15T19:32:29.268Z,7.50
2018-04-15T19:34:58.800Z,11.40
2018-04-15T19:37:28.293Z,7.20
2018-04-15T19:39:57.782Z,6.43
2018-04-15T19:42:27.387Z,8.93
2018-04-15T19:44:56.875Z,7.10
2018-04-15T19:47:26.468Z,7.50
2018-04-15T19:49:55.953Z,6.30
2018-04-15T19:52:25.467Z,7.23
2018-04-15T19:54:54.969Z,6.57
2018-04-15T19:57:24.506Z,6.67
2018-04-15T19:59:54.065Z,12.80
2018-04-15T20:02:23.573Z,8.10
2018-04-15T20:04:52.853Z,7.93
2018-04-15T20:07:22.388Z,8.80
2018-04-15T20:09:51.888Z,7.50
2018-04-15T20:12:21.497Z,6.43
2018-04-15T20:14:50.996Z,6.57
2018-04-15T20:17:20.512Z,7.40
2018-04-15T20:19:50.095Z,7.37
2018-04-15T20:22:19.616Z,6.97
2018-04-15T20:24:49.224Z,6.93
2018-04-15T20:27:18.851Z,7.13
2018-04-15T20:29:48.358Z,7.20
2018-04-15T20:32:17.849Z,6.27
2018-04-15T20:34:47.357Z,5.93
2018-04-15T20:37:16.864Z,6.53
2018-04-15T20:39:46.139Z,6.93
2018-04-15T20:42:15.662Z,5.97
2018-04-15T20:44:45.014Z,5.60
2018-04-15T20:47:14.525Z,6.27
2018-04-15T20:49:44.040Z,6.07
2018-04-15T20:52:13.709Z,6.13
2018-04-15T20:54:43.209Z,5.80
2018-04-15T20:57:12.767Z,5.70
2018-04-15T20:59:42.265Z,6.07
2018-04-15T21:02:11.901Z,8.27
2018-04-15T21:04:41.164Z,6.37
2018-04-15T21:07:10.435Z,5.87
2018-04-15T21:09:39.997Z,6.50
2018-04-15T21:12:09.497Z,5.50
2018-04-15T21:14:39.065Z,6.80
2018-04-15T21:17:08.553Z,6.20
2018-04-15T21:19:38.033Z,8.70
2018-04-15T21:22:07.592Z,6.57
2018-04-15T21:24:37.077Z,6.30
2018-04-15T21:27:06.602Z,7.70
2018-04-15T21:29:36.093Z,7.00
2018-04-15T21:32:05.758Z,7.60
2018-04-15T21:34:35.241Z,7.20
2018-04-15T21:37:04.763Z,7.80
2018-04-15T21:39:34.040Z,7.40
2018-04-15T21:42:03.313Z,6.87
2018-04-15T21:44:32.833Z,7.17
2018-04-15T21:47:02.360Z,7.23
2018-04-15T21:49:31.860Z,7.90
2018-04-15T21:52:01.344Z,7.80
2018-04-15T21:54:30.833Z,8.90
2018-04-15T21:57:00.268Z,8.60
2018-04-15T21:59:29.792Z,7.60
2018-04-15T22:01:59.270Z,6.50
2018-04-15T22:04:28.561Z,6.97
2018-04-15T22:06:58.155Z,6.60
2018-04-15T22:09:27.933Z,6.40
2018-04-15T22:12:02.966Z,7.50
2018-04-15T22:14:32.628Z,8.37
2018-04-15T22:17:02.136Z,8.83
2018-04-15T22:19:31.601Z,9.47
2018-04-15T22:22:01.125Z,6.70
2018-04-15T22:24:30.740Z,6.83
2018-04-15T22:27:00.040Z,7.10
2018-04-15T22:29:29.528Z,9.30
2018-04-15T22:31:59.018Z,9.13
2018-04-15T22:34:28.496Z,5.50
2018-04-15T22:36:58.237Z,5.93
2018-04-15T22:39:27.721Z,5.40
2018-04-15T22:41:56.211Z,5.37
2018-04-15T22:44:24.683Z,8.73
2018-04-15T22:46:53.189Z,6.00
2018-04-15T22:49:23.125Z,5.13
2018-04-15T22:51:51.624Z,5.43
2018-04-15T22:54:20.236Z,5.20
2018-04-15T22:56:48.831Z,5.40
2018-04-15T22:59:17.296Z,4.60
2018-04-15T23:01:45.772Z,5.10
2018-04-15T23:04:13.913Z,5.13
2018-04-15T23:06:43.163Z,6.63
2018-04-15T23:09:11.641Z,7.17
2018-04-15T23:11:40.977Z,8.73
2018-04-15T23:14:09.487Z,6.20
2018-04-15T23:16:37.729Z,6.93
2018-04-15T23:19:06.232Z,6.97
2018-04-15T23:21:35.482Z,7.80
2018-04-15T23:24:03.993Z,7.50
2018-04-15T23:26:32.578Z,7.90
2018-04-15T23:29:01.216Z,7.63
2018-04-15T23:31:29.681Z,7.67
2018-04-15T23:33:59.050Z,8.03
2018-04-15T23:36:27.550Z,7.10
2018-04-15T23:38:56.792Z,8.17
2018-04-15T23:41:25.303Z,7.03
2018-04-15T23:43:53.714Z,7.57
2018-04-15T23:46:22.969Z,7.87
2018-04-15T23:48:51.449Z,9.07
2018-04-15T23:51:19.915Z,8.03
2018-04-15T23:53:48.405Z,7.77
2018-04-15T23:56:16.876Z,7.90
2018-04-15T23:58:45.397Z,8.50
